Huvudsida
METAR-TAF:

METAR-TAF

Flygplatser :

Bologna Guglielmo Marconis flygplats

Bologna, Italien

latitud: 44-32N, longitud: 011-18E, höjd: 36 m

Aktuellt väderrapport

Denna rapport gjordes för 12 minuter sedan, klockan 09:20 UTC
Vind 5 kt från nord/nordväst, varierande mellan väst och nord/nordost
Temperatur 23°C
Fuktighet 57%
Tryck 1014 hPa
Sikt 10 km eller mer
Inga moln under 1 500 m eller inga cumulonimbus

METAR: LIPE 250920Z 33005KT 280V020 CAVOK 23/14 Q1014

Tid: 11:32 (09:32 UTC)

Väderprognos

Denna rapport gjordes för 4 timmar och 32 minuter sedan, klockan 05:00 UTC
Prognos gäller från 25 kl. 06 UTC till 26 kl. 06 UTC
Vind 5 kt varierande vindriktning
Sikt 10 km eller mer
Få moln på en höjd av 3000 ft
Temporärt
från 25 kl. 12 UTC till 25 kl. 18 UTC
åska, regn

TAF: LIPE 250500Z 2506/2606 VRB05KT 9999 FEW030 TEMPO 2512/2518 TSRA

Aktuella väderrapporter och prognoser från 4000 flygplatser (METAR- och TAF-rapporter).

De tillgängliga stationerna syns som gula och röda prickar på kartan.

För musen över prickarna för att se namnen på stationerna.

Klicka sedan för att få väderrapporter och prognoser.

För att ändra kartan: Klicka på de gröna knapparna med ett svart kors på för att zooma in; den gröna knappen med ett streck på för att zooma ut; eller på de gröna pilarna för angränsande kartor.


METAR-TAF: